Time;durP1;ratioP1;P1;durP2;ratioP2;P2;SDS_P1;SDS_P2;PMS_P1;PMS_P2;Temp;Humidity;BMP_temperature;BMP_pressure;BME280_temperature;BME280_humidity;BME280_pressure;Samples;Min_cycle;Max_cycle;Signal;HPM_P1;HPM_P2
2024/01/08 00:00:49;;;;;;;25.75;25.35;;;;;;;;;;4146994;28;20042;-59
2024/01/08 00:02:51;;;;;;;24.20;23.90;;;;;;;;;;4146090;28;20053;-59
2024/01/08 00:04:53;;;;;;;26.35;25.95;;;;;;;;;;4145988;28;20050;-60
2024/01/08 00:06:54;;;;;;;24.75;24.35;;;;;;;;;;4145220;28;20038;-59
2024/01/08 00:09:03;;;;;;;23.35;23.05;;;;;;;;;;4146786;28;20037;-60
2024/01/08 00:11:05;;;;;;;25.33;24.73;;;;;;;;;;4147182;28;20107;-59
2024/01/08 00:13:09;;;;;;;25.60;25.20;;;;;;;;;;4147348;28;20120;-59
2024/01/08 00:15:11;;;;;;;26.38;26.00;;;;;;;;;;4147325;28;20380;-59
2024/01/08 00:17:13;;;;;;;23.90;23.55;;;;;;;;;;4147633;28;20117;-59
2024/01/08 00:19:14;;;;;;;24.47;24.17;;;;;;;;;;4147409;28;20088;-59
2024/01/08 00:21:16;;;;;;;21.17;20.98;;;;;;;;;;4141807;28;20347;-59
2024/01/08 00:23:18;;;;;;;26.83;26.43;;;;;;;;;;4131464;28;20112;-59
2024/01/08 00:25:23;;;;;;;27.38;26.98;;;;;;;;;;4131394;28;20463;-59
2024/01/08 00:27:25;;;;;;;25.15;24.75;;;;;;;;;;4131003;28;20046;-59
2024/01/08 00:29:27;;;;;;;27.30;26.70;;;;;;;;;;4131385;28;20118;-59
2024/01/08 00:31:29;;;;;;;25.20;24.80;;;;;;;;;;4131352;28;20042;-59
2024/01/08 00:33:30;;;;;;;23.85;23.45;;;;;;;;;;4131425;28;20038;-59
2024/01/08 00:35:32;;;;;;;29.00;28.40;;;;;;;;;;4131247;28;20061;-59
2024/01/08 00:37:35;;;;;;;27.55;26.95;;;;;;;;;;4132924;28;20078;-59
2024/01/08 00:39:36;;;;;;;;;;;;;;;;;;4134633;28;20046;-60
2024/01/08 00:41:38;;;;;;;22.35;22.13;;;;;;;;;;4134162;28;20344;-64
2024/01/08 00:43:40;;;;;;;25.40;25.00;;;;;;;;;;4134167;28;20126;-64
2024/01/08 00:45:42;;;;;;;24.25;23.95;;;;;;;;;;4132887;28;20458;-64
2024/01/08 00:47:43;;;;;;;26.37;25.97;;;;;;;;;;4143923;28;20294;-64
2024/01/08 00:49:45;;;;;;;23.60;23.30;;;;;;;;;;4134402;28;20281;-63
2024/01/08 00:51:47;;;;;;;26.97;26.57;;;;;;;;;;4117057;28;20411;-63
2024/01/08 00:53:48;;;;;;;25.60;25.30;;;;;;;;;;4150104;28;20038;-64
2024/01/08 00:55:50;;;;;;;23.60;23.30;;;;;;;;;;4150312;28;20038;-63
2024/01/08 00:57:54;;;;;;;24.88;24.48;;;;;;;;;;4150170;28;20136;-62
2024/01/08 00:59:56;;;;;;;25.27;24.83;;;;;;;;;;4150136;28;20375;-63
2024/01/08 01:01:58;;;;;;;24.95;24.63;;;;;;;;;;4149832;28;20120;-63
2024/01/08 01:04:00;;;;;;;25.65;25.15;;;;;;;;;;4149642;28;20073;-63
2024/01/08 01:06:02;;;;;;;25.85;25.45;;;;;;;;;;4132484;28;20190;-63
2024/01/08 01:08:04;;;;;;;25.08;24.67;;;;;;;;;;4149764;28;20034;-63
2024/01/08 01:10:06;;;;;;;23.13;22.83;;;;;;;;;;4149919;28;20042;-63
2024/01/08 01:12:10;;;;;;;26.80;25.92;;;;;;;;;;4149976;28;20129;-63
2024/01/08 01:14:14;;;;;;;24.88;24.48;;;;;;;;;;4149844;28;20124;-63
2024/01/08 01:16:16;;;;;;;26.35;25.95;;;;;;;;;;4131989;28;20078;-63
2024/01/08 01:18:18;;;;;;;24.80;24.27;;;;;;;;;;4138597;28;20148;-64
2024/01/08 01:20:19;;;;;;;23.60;23.30;;;;;;;;;;4133631;28;20042;-64
2024/01/08 01:22:21;;;;;;;26.57;26.17;;;;;;;;;;4116438;28;20039;-64
2024/01/08 01:24:23;;;;;;;26.63;25.70;;;;;;;;;;4116356;28;20121;-63
2024/01/08 01:26:24;;;;;;;28.10;27.60;;;;;;;;;;4133778;28;20288;-63
2024/01/08 01:28:26;;;;;;;25.55;25.15;;;;;;;;;;4133416;28;20478;-63
2024/01/08 01:30:28;;;;;;;26.20;25.60;;;;;;;;;;4133046;28;20133;-63
2024/01/08 01:32:30;;;;;;;26.02;25.50;;;;;;;;;;4131938;28;20201;-63
2024/01/08 01:34:32;;;;;;;27.40;26.90;;;;;;;;;;4133420;28;20046;-64
2024/01/08 01:36:35;;;;;;;28.00;27.50;;;;;;;;;;4133346;28;20438;-62
2024/01/08 01:38:36;;;;;;;26.67;26.23;;;;;;;;;;4133138;28;20121;-63
2024/01/08 01:40:39;;;;;;;25.35;24.92;;;;;;;;;;4133126;28;20048;-63
2024/01/08 01:42:43;;;;;;;26.83;26.42;;;;;;;;;;4133338;28;20576;-63
2024/01/08 01:44:44;;;;;;;26.77;26.37;;;;;;;;;;4143456;28;20039;-63
2024/01/08 01:46:47;;;;;;;25.73;25.40;;;;;;;;;;4133166;28;20078;-63
2024/01/08 01:48:50;;;;;;;27.35;26.95;;;;;;;;;;4131977;28;20293;-63
2024/01/08 01:50:51;;;;;;;25.77;25.45;;;;;;;;;;4133343;28;20038;-63
2024/01/08 01:52:53;;;;;;;24.90;24.60;;;;;;;;;;4142334;28;20042;-63
2024/01/08 01:54:55;;;;;;;24.30;24.00;;;;;;;;;;4149033;28;20042;-64
2024/01/08 01:56:59;;;;;;;25.15;24.85;;;;;;;;;;4149031;28;20042;-63
2024/01/08 01:59:03;;;;;;;25.48;25.08;;;;;;;;;;4147852;28;20050;-63
2024/01/08 02:01:04;;;;;;;29.15;28.65;;;;;;;;;;4148049;28;20494;-63
2024/01/08 02:03:06;;;;;;;25.17;24.87;;;;;;;;;;4147162;28;20038;-63
2024/01/08 02:05:09;;;;;;;25.75;25.42;;;;;;;;;;4147372;28;20050;-62
2024/01/08 02:07:10;;;;;;;25.08;24.77;;;;;;;;;;4147575;28;20042;-64
2024/01/08 02:09:16;;;;;;;26.77;26.38;;;;;;;;;;4147275;28;20120;-63
2024/01/08 02:11:18;;;;;;;26.25;25.85;;;;;;;;;;4141143;28;20121;-63
2024/01/08 02:13:20;;;;;;;25.55;25.02;;;;;;;;;;4130932;28;20061;-63
2024/01/08 02:15:26;;;;;;;27.08;26.67;;;;;;;;;;4130762;28;20108;-63
2024/01/08 02:17:30;;;;;;;25.40;25.10;;;;;;;;;;4131270;28;20047;-63
2024/01/08 02:19:32;;;;;;;27.23;26.83;;;;;;;;;;4132616;28;20121;-64
2024/01/08 02:21:34;;;;;;;24.17;23.87;;;;;;;;;;4132644;28;20122;-63
2024/01/08 02:23:36;;;;;;;26.55;26.13;;;;;;;;;;4132610;28;20057;-63
2024/01/08 02:25:37;;;;;;;22.30;22.00;;;;;;;;;;4132626;28;20126;-63
2024/01/08 02:27:39;;;;;;;28.25;27.50;;;;;;;;;;4132503;28;20042;-63
2024/01/08 02:29:41;;;;;;;26.07;25.53;;;;;;;;;;4132785;28;20134;-63
2024/01/08 02:31:43;;;;;;;28.13;27.60;;;;;;;;;;4137555;28;20347;-63
2024/01/08 02:33:44;;;;;;;26.73;26.33;;;;;;;;;;4132439;28;20093;-63
2024/01/08 02:35:46;;;;;;;25.20;24.85;;;;;;;;;;4132116;28;20031;-63
2024/01/08 02:37:48;;;;;;;26.73;26.27;;;;;;;;;;4132535;28;20121;-63
2024/01/08 02:39:49;;;;;;;27.67;27.27;;;;;;;;;;4138879;28;20044;-64
2024/01/08 02:41:51;;;;;;;25.80;25.40;;;;;;;;;;4136052;28;20052;-63
2024/01/08 02:43:53;;;;;;;28.15;27.65;;;;;;;;;;4132326;28;20129;-63
2024/01/08 02:45:55;;;;;;;28.07;27.67;;;;;;;;;;4132164;28;20050;-64
2024/01/08 02:47:56;;;;;;;26.13;25.73;;;;;;;;;;4114979;28;20293;-63
2024/01/08 02:49:58;;;;;;;25.85;25.52;;;;;;;;;;4132205;28;20038;-63
2024/01/08 02:52:00;;;;;;;26.63;26.23;;;;;;;;;;4134238;28;20117;-63
2024/01/08 02:54:01;;;;;;;24.23;23.87;;;;;;;;;;4147709;28;20347;-63
2024/01/08 02:56:03;;;;;;;27.05;26.65;;;;;;;;;;4148546;28;20458;-64
2024/01/08 02:58:07;;;;;;;24.08;23.77;;;;;;;;;;4148148;28;20045;-63
2024/01/08 03:00:09;;;;;;;24.90;24.50;;;;;;;;;;4148206;28;20121;-63
2024/01/08 03:02:11;;;;;;;24.83;24.52;;;;;;;;;;4148258;28;20108;-63
2024/01/08 03:04:13;;;;;;;25.90;25.50;;;;;;;;;;4147860;28;20062;-63
2024/01/08 03:06:15;;;;;;;24.67;24.38;;;;;;;;;;4148247;28;20046;-64
2024/01/08 03:08:19;;;;;;;22.58;22.27;;;;;;;;;;4147954;28;20371;-63
2024/01/08 03:10:20;;;;;;;27.10;26.70;;;;;;;;;;4140489;28;20537;-63
2024/01/08 03:12:23;;;;;;;24.87;24.50;;;;;;;;;;4131688;28;20044;-63
2024/01/08 03:14:24;;;;;;;27.38;26.98;;;;;;;;;;4131917;28;20438;-63
2024/01/08 03:16:26;;;;;;;25.63;25.27;;;;;;;;;;4131641;28;20121;-63
2024/01/08 03:18:28;;;;;;;26.95;26.55;;;;;;;;;;4132011;28;20070;-63
2024/01/08 03:20:30;;;;;;;26.80;26.40;;;;;;;;;;4131585;28;20125;-63
2024/01/08 03:22:31;;;;;;;25.10;24.80;;;;;;;;;;4131825;28;20121;-63
2024/01/08 03:24:34;;;;;;;26.05;25.65;;;;;;;;;;4131888;28;20553;-63
2024/01/08 03:26:36;;;;;;;26.50;26.10;;;;;;;;;;4131532;28;20125;-63
2024/01/08 03:28:38;;;;;;;27.23;26.83;;;;;;;;;;4131793;28;20114;-63
2024/01/08 03:30:42;;;;;;;24.48;24.17;;;;;;;;;;4131359;28;20038;-63
2024/01/08 03:32:43;;;;;;;24.50;24.20;;;;;;;;;;4131743;28;20042;-64
2024/01/08 03:34:46;;;;;;;27.58;27.08;;;;;;;;;;4131614;28;20070;-63
2024/01/08 03:36:48;;;;;;;26.90;26.48;;;;;;;;;;4142071;28;20048;-64
2024/01/08 03:38:49;;;;;;;25.37;24.90;;;;;;;;;;4131422;28;20467;-63
2024/01/08 03:40:51;;;;;;;26.50;26.13;;;;;;;;;;4131396;28;20050;-63
2024/01/08 03:42:53;;;;;;;25.40;25.00;;;;;;;;;;4131740;28;20494;-63
2024/01/08 03:44:54;;;;;;;26.43;26.03;;;;;;;;;;4131739;28;20100;-63
2024/01/08 03:46:56;;;;;;;25.33;24.95;;;;;;;;;;4131673;28;20085;-63
2024/01/08 03:48:58;;;;;;;26.95;26.55;;;;;;;;;;4131557;28;20038;-63
2024/01/08 03:51:02;;;;;;;25.75;25.38;;;;;;;;;;4131490;28;20122;-62
2024/01/08 03:53:06;;;;;;;26.83;26.43;;;;;;;;;;4142355;28;20037;-63
2024/01/08 03:55:10;;;;;;;21.13;20.92;;;;;;;;;;4147521;28;20296;-63
2024/01/08 03:57:14;;;;;;;27.05;26.65;;;;;;;;;;4147509;28;20509;-64
2024/01/08 03:59:16;;;;;;;25.17;24.88;;;;;;;;;;4147675;28;20042;-63
2024/01/08 04:01:17;;;;;;;28.57;28.07;;;;;;;;;;4147439;28;20389;-63
2024/01/08 04:03:19;;;;;;;26.30;25.75;;;;;;;;;;4147389;28;20057;-63
2024/01/08 04:05:21;;;;;;;26.23;25.83;;;;;;;;;;4147833;28;20450;-64
2024/01/08 04:07:23;;;;;;;28.80;28.37;;;;;;;;;;4133686;28;20045;-63
2024/01/08 04:09:25;;;;;;;27.02;26.63;;;;;;;;;;4142831;28;20297;-63
2024/01/08 04:11:26;;;;;;;26.98;26.52;;;;;;;;;;4147802;28;20042;-63
2024/01/08 04:13:28;;;;;;;24.60;24.30;;;;;;;;;;4150971;28;20034;-64
2024/01/08 04:15:30;;;;;;;24.57;24.27;;;;;;;;;;4150834;28;20048;-63
2024/01/08 04:17:31;;;;;;;25.55;25.20;;;;;;;;;;4150713;28;20125;-63
2024/01/08 04:19:33;;;;;;;26.35;25.95;;;;;;;;;;4150737;28;20038;-63
2024/01/08 04:21:35;;;;;;;28.80;28.38;;;;;;;;;;4150713;28;20125;-63
2024/01/08 04:23:38;;;;;;;26.73;26.33;;;;;;;;;;4150815;28;20057;-63
2024/01/08 04:25:39;;;;;;;27.38;26.98;;;;;;;;;;4150619;28;20054;-63
2024/01/08 04:27:42;;;;;;;23.67;23.30;;;;;;;;;;4150603;28;20042;-64
2024/01/08 04:29:44;;;;;;;26.13;25.75;;;;;;;;;;4149213;28;20042;-63
2024/01/08 04:31:45;;;;;;;26.57;26.13;;;;;;;;;;4136228;28;20077;-63
2024/01/08 04:33:48;;;;;;;26.60;26.20;;;;;;;;;;4142670;28;20543;-64
2024/01/08 04:35:50;;;;;;;27.40;26.90;;;;;;;;;;4134258;28;20490;-63
2024/01/08 04:37:52;;;;;;;26.88;26.48;;;;;;;;;;4134348;28;20394;-63
2024/01/08 04:39:54;;;;;;;25.27;24.77;;;;;;;;;;4133985;28;20413;-63
2024/01/08 04:41:55;;;;;;;24.77;24.37;;;;;;;;;;4134162;28;20042;-63
2024/01/08 04:43:57;;;;;;;23.60;23.23;;;;;;;;;;4134261;28;20373;-63
2024/01/08 04:45:59;;;;;;;23.70;23.40;;;;;;;;;;4134004;28;20050;-63
2024/01/08 04:48:00;;;;;;;28.35;27.85;;;;;;;;;;4133961;28;20108;-63
2024/01/08 04:50:02;;;;;;;26.95;26.45;;;;;;;;;;4134204;28;20117;-63
2024/01/08 04:52:04;;;;;;;26.63;26.15;;;;;;;;;;4119444;28;21313;-63
2024/01/08 04:54:07;;;;;;;24.10;23.60;;;;;;;;;;4150126;28;20096;-63
2024/01/08 04:56:20;;;;;;;25.45;24.98;;;;;;;;;;4150179;28;20615;-63
2024/01/08 04:58:22;;;;;;;24.85;24.38;;;;;;;;;;4150017;28;20045;-63
2024/01/08 05:00:24;;;;;;;26.97;26.57;;;;;;;;;;4149661;28;20100;-63
2024/01/08 05:02:25;;;;;;;24.65;24.25;;;;;;;;;;4145889;28;20438;-63
2024/01/08 05:04:29;;;;;;;22.73;22.25;;;;;;;;;;4133583;28;20074;-63
2024/01/08 05:06:31;;;;;;;24.70;24.20;;;;;;;;;;4133561;28;20046;-63
2024/01/08 05:08:33;;;;;;;25.50;25.10;;;;;;;;;;4132923;28;20037;-63
2024/01/08 05:10:34;;;;;;;24.17;23.73;;;;;;;;;;4127502;28;20062;-63
2024/01/08 05:12:36;;;;;;;28.30;27.63;;;;;;;;;;4127385;28;20092;-63
2024/01/08 05:14:38;;;;;;;23.65;22.92;;;;;;;;;;4133587;28;20396;-63
2024/01/08 05:16:39;;;;;;;26.33;25.53;;;;;;;;;;4133229;28;20479;-63
2024/01/08 05:18:41;;;;;;;25.27;24.70;;;;;;;;;;4133667;28;20293;-63
2024/01/08 05:20:52;;;;;;;25.67;25.17;;;;;;;;;;4133629;28;20281;-63
2024/01/08 05:22:54;;;;;;;27.10;26.50;;;;;;;;;;4133600;28;20115;-59
2024/01/08 05:24:56;;;;;;;25.33;24.83;;;;;;;;;;4132869;28;20401;-59
2024/01/08 05:26:58;;;;;;;;;;;;;;;;;;4132408;28;20079;-59
2024/01/08 05:28:59;;;;;;;23.50;23.20;;;;;;;;;;4143101;28;19925;-58
2024/01/08 05:31:05;;;;;;;25.40;24.67;;;;;;;;;;4111806;28;20043;-60
2024/01/08 05:33:07;;;;;;;28.10;27.10;;;;;;;;;;4127629;28;20035;-59
2024/01/08 05:35:09;;;;;;;27.60;26.88;;;;;;;;;;4129957;28;20042;-59
2024/01/08 05:37:11;;;;;;;28.65;27.98;;;;;;;;;;4133481;28;20118;-59
2024/01/08 05:39:12;;;;;;;25.37;24.47;;;;;;;;;;4133437;28;20398;-60
2024/01/08 05:41:14;;;;;;;27.27;26.55;;;;;;;;;;4133137;28;20038;-59
2024/01/08 05:43:19;;;;;;;25.90;25.40;;;;;;;;;;4133078;28;20049;-59
2024/01/08 05:45:21;;;;;;;27.87;27.20;;;;;;;;;;4133232;28;20129;-59
2024/01/08 05:47:23;;;;;;;30.00;29.05;;;;;;;;;;4115970;28;20049;-59
2024/01/08 05:49:25;;;;;;;25.80;25.15;;;;;;;;;;4133149;28;20038;-59
2024/01/08 05:51:27;;;;;;;28.38;27.70;;;;;;;;;;4132784;28;20133;-59
2024/01/08 05:53:29;;;;;;;27.27;26.55;;;;;;;;;;4126799;28;20450;-60
2024/01/08 05:55:31;;;;;;;28.92;27.90;;;;;;;;;;4128685;28;20042;-59
2024/01/08 05:57:33;;;;;;;29.60;28.67;;;;;;;;;;4132844;28;20041;-59
2024/01/08 05:59:34;;;;;;;27.77;27.15;;;;;;;;;;4132937;28;20046;-60
2024/01/08 06:01:42;;;;;;;28.25;27.52;;;;;;;;;;4115129;28;20804;-59
2024/01/08 06:03:44;;;;;;;25.42;24.90;;;;;;;;;;4132518;28;20078;-59
2024/01/08 06:05:48;;;;;;;28.55;27.25;;;;;;;;;;4132561;28;20050;-59
2024/01/08 06:07:50;;;;;;;26.75;26.10;;;;;;;;;;4132414;28;20034;-59
2024/01/08 06:09:52;;;;;;;28.15;26.60;;;;;;;;;;4147877;28;20128;-60
2024/01/08 06:11:56;;;;;;;27.77;26.88;;;;;;;;;;4148709;28;20042;-59
2024/01/08 06:14:03;;;;;;;27.35;26.75;;;;;;;;;;4148741;28;20034;-59
2024/01/08 06:16:05;;;;;;;26.15;25.40;;;;;;;;;;4135184;28;20070;-60
2024/01/08 06:18:07;;;;;;;26.85;26.25;;;;;;;;;;4123807;28;20459;-62
2024/01/08 06:20:09;;;;;;;28.30;27.48;;;;;;;;;;4128929;28;20066;-63
2024/01/08 06:22:11;;;;;;;26.65;26.08;;;;;;;;;;4132451;28;20043;-62
2024/01/08 06:24:13;;;;;;;25.40;24.98;;;;;;;;;;4134289;28;20133;-63
2024/01/08 06:26:14;;;;;;;25.87;25.17;;;;;;;;;;4141317;28;20446;-62
2024/01/08 06:28:16;;;;;;;28.67;27.80;;;;;;;;;;4114963;28;20047;-62
2024/01/08 06:30:18;;;;;;;28.70;27.77;;;;;;;;;;4132189;28;20041;-62
2024/01/08 06:32:20;;;;;;;27.50;26.83;;;;;;;;;;4130594;28;20781;-66
2024/01/08 06:34:21;;;;;;;27.77;27.07;;;;;;;;;;4129592;28;20042;-66
2024/01/08 06:36:23;;;;;;;26.00;25.40;;;;;;;;;;4132085;28;20497;-66
2024/01/08 06:38:25;;;;;;;27.30;26.58;;;;;;;;;;4131041;28;20133;-66
2024/01/08 06:40:27;;;;;;;26.27;25.63;;;;;;;;;;4132235;28;20101;-65
2024/01/08 06:42:29;;;;;;;29.52;28.63;;;;;;;;;;4132210;28;20125;-66
2024/01/08 06:44:47;;;;;;;25.80;25.15;;;;;;;;;;4132455;28;20039;-66
2024/01/08 06:46:48;;;;;;;28.17;27.07;;;;;;;;;;4132096;28;20129;-66
2024/01/08 06:48:51;;;;;;;27.07;26.33;;;;;;;;;;4132256;28;20112;-66
2024/01/08 06:50:55;;;;;;;28.60;27.35;;;;;;;;;;4131854;28;20048;-66
2024/01/08 06:52:59;;;;;;;28.88;27.92;;;;;;;;;;4142215;28;20038;-66
2024/01/08 06:55:01;;;;;;;28.42;27.63;;;;;;;;;;4143337;28;20049;-66
2024/01/08 06:57:03;;;;;;;27.38;26.30;;;;;;;;;;4132256;28;20133;-66
2024/01/08 06:59:04;;;;;;;28.17;27.57;;;;;;;;;;4132188;28;20384;-66
2024/01/08 07:01:06;;;;;;;27.58;26.77;;;;;;;;;;4131868;28;20125;-66
2024/01/08 07:03:08;;;;;;;28.58;27.52;;;;;;;;;;4131718;28;20129;-66
2024/01/08 07:05:12;;;;;;;26.55;26.05;;;;;;;;;;4132216;28;20070;-66
2024/01/08 07:07:14;;;;;;;26.17;25.58;;;;;;;;;;4127924;28;20125;-62
2024/01/08 07:09:16;;;;;;;26.33;25.83;;;;;;;;;;4135904;28;20035;-62
2024/01/08 07:11:22;;;;;;;25.00;24.43;;;;;;;;;;4132008;28;20368;-62
2024/01/08 07:13:26;;;;;;;26.27;25.63;;;;;;;;;;4131761;28;20338;-62
2024/01/08 07:15:46;;;;;;;27.70;26.88;;;;;;;;;;4131957;28;20680;-62
2024/01/08 07:17:47;;;;;;;27.63;26.77;;;;;;;;;;4132062;28;20039;-62
2024/01/08 07:19:49;;;;;;;27.48;26.75;;;;;;;;;;4131889;28;20042;-62
2024/01/08 07:21:51;;;;;;;28.33;27.73;;;;;;;;;;4131704;28;20043;-62
2024/01/08 07:23:53;;;;;;;29.88;28.92;;;;;;;;;;4131647;28;20387;-62
2024/01/08 07:25:54;;;;;;;28.07;27.40;;;;;;;;;;4131600;28;20470;-62
2024/01/08 07:27:57;;;;;;;27.48;26.50;;;;;;;;;;4131885;28;20281;-62
2024/01/08 07:29:59;;;;;;;29.13;28.33;;;;;;;;;;4129985;28;20423;-62
2024/01/08 07:32:04;;;;;;;28.80;28.02;;;;;;;;;;4126826;28;20038;-62
2024/01/08 07:34:05;;;;;;;28.15;27.33;;;;;;;;;;4128039;28;20121;-62
2024/01/08 07:36:08;;;;;;;29.90;29.10;;;;;;;;;;4130183;28;20152;-62
2024/01/08 07:38:09;;;;;;;27.05;25.92;;;;;;;;;;4127723;28;20410;-62
2024/01/08 07:40:11;;;;;;;28.40;27.63;;;;;;;;;;4129746;28;20131;-62
2024/01/08 07:42:13;;;;;;;24.60;24.10;;;;;;;;;;4131854;28;20296;-61
2024/01/08 07:44:15;;;;;;;28.47;27.57;;;;;;;;;;4134376;28;20076;-60
2024/01/08 07:46:17;;;;;;;31.80;30.60;;;;;;;;;;4130534;28;20034;-60
2024/01/08 07:48:19;;;;;;;28.63;27.73;;;;;;;;;;4134814;28;20446;-60
2024/01/08 07:50:21;;;;;;;28.77;28.02;;;;;;;;;;4134935;28;20144;-61
2024/01/08 07:52:22;;;;;;;28.37;27.43;;;;;;;;;;4134783;28;20043;-61
2024/01/08 07:54:38;;;;;;;29.02;28.40;;;;;;;;;;4133982;28;20121;-62
2024/01/08 07:56:40;;;;;;;30.33;29.40;;;;;;;;;;4134014;28;20034;-62
2024/01/08 07:58:57;;;;;;;27.20;26.50;;;;;;;;;;4133026;28;20044;-62
2024/01/08 08:00:59;;;;;;;28.00;27.00;;;;;;;;;;4132938;28;20070;-62
2024/01/08 08:03:01;;;;;;;29.40;27.73;;;;;;;;;;4133745;28;20105;-62
2024/01/08 08:05:03;;;;;;;26.60;25.67;;;;;;;;;;4134471;28;20038;-62
2024/01/08 08:07:05;;;;;;;28.90;28.00;;;;;;;;;;4133684;28;20244;-62
2024/01/08 08:09:07;;;;;;;28.23;27.17;;;;;;;;;;4133991;28;20042;-62
2024/01/08 08:11:09;;;;;;;28.67;27.87;;;;;;;;;;4134021;28;20038;-62
2024/01/08 08:13:11;;;;;;;28.80;28.08;;;;;;;;;;4133908;28;20351;-62
2024/01/08 08:15:13;;;;;;;30.10;28.77;;;;;;;;;;4131384;28;20038;-62
2024/01/08 08:17:15;;;;;;;30.75;29.67;;;;;;;;;;4130487;28;21100;-61
2024/01/08 08:19:17;;;;;;;28.35;27.38;;;;;;;;;;4131544;28;20113;-62
2024/01/08 08:21:19;;;;;;;26.23;25.10;;;;;;;;;;4133825;28;20039;-62
2024/01/08 08:23:24;;;;;;;27.23;26.63;;;;;;;;;;4133943;28;20486;-62
2024/01/08 08:25:26;;;;;;;28.88;27.90;;;;;;;;;;4134680;28;20034;-62
2024/01/08 08:27:28;;;;;;;26.95;26.30;;;;;;;;;;4147198;28;20433;-62
2024/01/08 08:29:29;;;;;;;28.15;27.17;;;;;;;;;;4140936;28;20038;-62
2024/01/08 08:31:31;;;;;;;24.67;24.27;;;;;;;;;;4134008;28;20442;-62
2024/01/08 08:33:41;;;;;;;26.08;25.48;;;;;;;;;;4134164;28;20281;-62
2024/01/08 08:35:43;;;;;;;26.65;25.95;;;;;;;;;;4134084;28;20129;-62
2024/01/08 08:37:45;;;;;;;27.35;26.65;;;;;;;;;;4132011;28;20055;-62
2024/01/08 08:39:55;;;;;;;29.48;28.67;;;;;;;;;;4133594;28;20092;-62
2024/01/08 08:41:58;;;;;;;28.47;27.73;;;;;;;;;;4134139;28;20430;-62
2024/01/08 08:44:00;;;;;;;31.45;30.48;;;;;;;;;;4134019;28;20125;-62
2024/01/08 08:46:02;;;;;;;28.20;27.40;;;;;;;;;;4130831;28;20034;-62
2024/01/08 08:48:04;;;;;;;26.95;26.35;;;;;;;;;;4129360;28;20916;-62
2024/01/08 08:50:09;;;;;;;27.83;27.13;;;;;;;;;;4132981;28;20121;-62
2024/01/08 08:52:10;;;;;;;27.45;26.90;;;;;;;;;;4132337;28;20434;-61
2024/01/08 08:54:12;;;;;;;26.80;26.07;;;;;;;;;;4131343;28;20038;-62
2024/01/08 08:56:14;;;;;;;29.42;28.70;;;;;;;;;;4132149;28;20035;-62
2024/01/08 08:58:16;;;;;;;25.63;25.23;;;;;;;;;;4133516;28;20092;-62
2024/01/08 09:00:18;;;;;;;29.97;29.20;;;;;;;;;;4132490;28;20045;-62
2024/01/08 09:02:23;;;;;;;28.05;27.25;;;;;;;;;;4131247;28;20092;-62
2024/01/08 09:04:25;;;;;;;27.50;27.00;;;;;;;;;;4131833;28;20061;-62
2024/01/08 09:06:34;;;;;;;25.85;25.10;;;;;;;;;;4133028;28;20526;-62
2024/01/08 09:08:36;;;;;;;25.60;24.83;;;;;;;;;;4115053;28;20113;-62
2024/01/08 09:10:38;;;;;;;29.65;28.95;;;;;;;;;;4133325;28;20117;-62
2024/01/08 09:12:40;;;;;;;30.17;29.35;;;;;;;;;;4133123;28;20070;-62
2024/01/08 09:14:45;;;;;;;30.50;29.50;;;;;;;;;;4133043;28;20034;-62
2024/01/08 09:16:47;;;;;;;31.02;30.20;;;;;;;;;;4133285;28;20070;-62
2024/01/08 09:18:48;;;;;;;27.45;26.65;;;;;;;;;;4133747;28;20038;-62
2024/01/08 09:20:50;;;;;;;29.63;28.80;;;;;;;;;;4133441;28;20121;-62
2024/01/08 09:22:52;;;;;;;29.05;28.23;;;;;;;;;;4133710;28;20043;-62
2024/01/08 09:24:54;;;;;;;31.15;30.17;;;;;;;;;;4133156;28;20042;-62
2024/01/08 09:26:55;;;;;;;31.92;30.92;;;;;;;;;;4133397;28;20553;-62
2024/01/08 09:28:57;;;;;;;30.73;29.67;;;;;;;;;;4133684;28;20470;-62
2024/01/08 09:31:00;;;;;;;28.67;27.60;;;;;;;;;;4133293;28;20093;-62
2024/01/08 09:33:02;;;;;;;30.80;30.00;;;;;;;;;;4133570;28;20100;-62
2024/01/08 09:35:04;;;;;;;29.88;28.60;;;;;;;;;;4131902;28;20117;-62
2024/01/08 09:37:06;;;;;;;30.85;29.45;;;;;;;;;;4133101;28;20042;-62
2024/01/08 09:39:08;;;;;;;31.90;30.80;;;;;;;;;;4133201;28;20034;-62
2024/01/08 09:41:12;;;;;;;29.75;28.85;;;;;;;;;;4133324;28;20487;-62
2024/01/08 09:43:25;;;;;;;25.75;24.90;;;;;;;;;;4115704;28;20078;-62
2024/01/08 09:45:27;;;;;;;;;;;;;;;;;;4133773;28;20124;-62
2024/01/08 09:47:29;;;;;;;29.55;28.85;;;;;;;;;;4133408;28;19921;-62
2024/01/08 09:49:32;;;;;;;32.15;31.25;;;;;;;;;;4133216;28;20046;-62
2024/01/08 09:51:35;;;;;;;28.92;28.13;;;;;;;;;;4133091;28;20070;-62
2024/01/08 09:53:36;;;;;;;27.67;27.07;;;;;;;;;;4133022;28;20113;-62
2024/01/08 09:55:38;;;;;;;29.63;28.83;;;;;;;;;;4132935;28;20120;-62
2024/01/08 09:57:40;;;;;;;30.13;29.20;;;;;;;;;;4133475;28;20064;-62
2024/01/08 09:59:42;;;;;;;30.53;29.47;;;;;;;;;;4132964;28;20046;-62
2024/01/08 10:01:43;;;;;;;32.50;31.17;;;;;;;;;;4132214;28;20062;-62
2024/01/08 10:03:46;;;;;;;28.77;28.08;;;;;;;;;;4132363;28;20293;-62
2024/01/08 10:05:48;;;;;;;28.63;27.85;;;;;;;;;;4132473;28;20042;-62
2024/01/08 10:07:50;;;;;;;29.30;28.13;;;;;;;;;;4132860;28;20038;-62
2024/01/08 10:09:56;;;;;;;27.97;27.27;;;;;;;;;;4132219;28;20035;-62
2024/01/08 10:11:58;;;;;;;25.92;25.33;;;;;;;;;;4132836;28;20046;-62
2024/01/08 10:14:00;;;;;;;31.60;30.70;;;;;;;;;;4132871;28;20042;-62
2024/01/08 10:16:02;;;;;;;30.30;29.45;;;;;;;;;;4132825;28;20042;-62
2024/01/08 10:18:08;;;;;;;31.25;29.80;;;;;;;;;;4131810;28;20044;-62
2024/01/08 10:20:11;;;;;;;30.48;29.77;;;;;;;;;;4132494;28;20134;-62
2024/01/08 10:22:12;;;;;;;;;;;;;;;;;;4133613;28;20042;-62
2024/01/08 10:24:14;;;;;;;28.50;27.73;;;;;;;;;;4133523;28;19921;-62
2024/01/08 10:26:18;;;;;;;26.90;26.27;;;;;;;;;;4131636;28;20038;-62
2024/01/08 10:28:20;;;;;;;28.50;27.73;;;;;;;;;;4129709;28;20042;-62
2024/01/08 10:30:25;;;;;;;28.13;27.23;;;;;;;;;;4131369;28;20038;-62
2024/01/08 10:32:27;;;;;;;27.58;26.83;;;;;;;;;;4131442;28;20379;-62
2024/01/08 10:34:30;;;;;;;26.65;26.05;;;;;;;;;;4131770;28;20048;-62
2024/01/08 10:36:32;;;;;;;30.05;29.00;;;;;;;;;;4130808;28;20100;-61
2024/01/08 10:38:34;;;;;;;;;;;;;;;;;;4131014;28;20117;-62
2024/01/08 10:40:37;;;;;;;32.00;30.40;;;;;;;;;;4132382;28;19922;-62
2024/01/08 10:42:41;;;;;;;29.67;28.67;;;;;;;;;;4132164;28;20042;-62
2024/01/08 10:44:43;;;;;;;28.42;27.50;;;;;;;;;;4130541;28;20485;-62
2024/01/08 10:46:49;;;;;;;28.20;27.10;;;;;;;;;;4131375;28;20073;-62
2024/01/08 10:48:53;;;;;;;32.00;30.80;;;;;;;;;;4126315;28;20441;-62
2024/01/08 10:50:57;;;;;;;32.42;30.88;;;;;;;;;;4138405;28;20042;-62
2024/01/08 10:52:59;;;;;;;26.50;25.73;;;;;;;;;;4148376;28;20038;-62
2024/01/08 10:55:01;;;;;;;28.13;27.35;;;;;;;;;;4132721;28;20062;-62
2024/01/08 10:57:03;;;;;;;;;;;;;;;;;;4131845;28;20073;-62
2024/01/08 10:59:05;;;;;;;31.60;30.58;;;;;;;;;;4129771;28;19944;-62
2024/01/08 11:01:10;;;;;;;27.33;26.52;;;;;;;;;;4129296;28;20058;-62
2024/01/08 11:03:12;;;;;;;31.73;30.40;;;;;;;;;;4129249;28;20561;-62
2024/01/08 11:05:15;;;;;;;30.08;28.52;;;;;;;;;;4130055;28;20038;-62
2024/01/08 11:07:17;;;;;;;27.83;26.95;;;;;;;;;;4129806;28;20044;-62
2024/01/08 11:09:26;;;;;;;25.80;25.10;;;;;;;;;;4131432;28;20502;-62
2024/01/08 11:11:27;;;;;;;27.75;26.73;;;;;;;;;;4125034;28;20073;-62
2024/01/08 11:13:29;;;;;;;29.70;28.88;;;;;;;;;;4125060;28;20446;-62
2024/01/08 11:15:31;;;;;;;28.93;28.23;;;;;;;;;;4128815;28;20038;-62
2024/01/08 11:17:34;;;;;;;28.38;27.42;;;;;;;;;;4131281;28;20041;-62
2024/01/08 11:19:45;;;;;;;24.33;23.92;;;;;;;;;;4129207;28;20148;-62
2024/01/08 11:21:55;;;;;;;31.88;30.75;;;;;;;;;;4127244;28;20105;-62
2024/01/08 11:23:57;;;;;;;29.80;28.77;;;;;;;;;;4131773;28;20088;-60
2024/01/08 11:26:00;;;;;;;29.70;28.80;;;;;;;;;;4126930;28;20050;-60
2024/01/08 11:28:05;;;;;;;30.40;29.13;;;;;;;;;;4126740;28;20833;-61
2024/01/08 11:30:07;;;;;;;29.85;29.05;;;;;;;;;;4128109;28;20430;-61
2024/01/08 11:32:21;;;;;;;31.58;30.13;;;;;;;;;;4129818;28;20070;-61
2024/01/08 11:34:52;;;;;;;29.67;28.70;;;;;;;;;;4126590;28;20035;-61
2024/01/08 11:37:14;;;;;;;29.42;28.73;;;;;;;;;;4125524;28;20068;-60
2024/01/08 11:39:17;;;;;;;28.98;28.23;;;;;;;;;;4126692;28;20093;-61
2024/01/08 11:41:21;;;;;;;30.35;29.30;;;;;;;;;;4115256;28;20053;-60
2024/01/08 11:43:22;;;;;;;29.20;28.05;;;;;;;;;;4115337;28;20077;-60
2024/01/08 11:45:25;;;;;;;29.30;28.40;;;;;;;;;;4122666;28;20042;-60
2024/01/08 11:47:27;;;;;;;27.08;26.48;;;;;;;;;;4115488;28;20043;-60
2024/01/08 11:49:29;;;;;;;27.67;27.13;;;;;;;;;;4123154;28;20039;-60
2024/01/08 11:51:31;;;;;;;26.48;25.67;;;;;;;;;;4128986;28;20047;-60
2024/01/08 11:53:33;;;;;;;28.92;27.45;;;;;;;;;;4129436;28;20506;-61
2024/01/08 11:55:35;;;;;;;27.48;26.70;;;;;;;;;;4131404;28;20101;-62